createdAt,value
2022-10-23T00:01:13.001Z,9.95
2022-10-23T00:03:40.732Z,9.92
2022-10-23T00:06:09.389Z,9.79
2022-10-23T00:08:37.334Z,9.80
2022-10-23T00:11:09.295Z,9.85
2022-10-23T00:13:37.789Z,9.81
2022-10-23T00:16:06.055Z,9.84
2022-10-23T00:18:34.506Z,9.83
2022-10-23T00:21:02.840Z,9.77
2022-10-23T00:23:31.739Z,9.68
2022-10-23T00:26:00.200Z,9.70
2022-10-23T00:28:29.379Z,9.69
2022-10-23T00:30:57.605Z,9.73
2022-10-23T00:33:25.465Z,9.71
2022-10-23T00:35:53.337Z,9.67
2022-10-23T00:38:22.307Z,9.65
2022-10-23T00:43:20.019Z,9.64
2022-10-23T00:45:49.431Z,9.62
2022-10-23T00:48:18.051Z,9.60
2022-10-23T00:50:47.572Z,9.57
2022-10-23T00:53:17.895Z,9.49
2022-10-23T00:55:48.118Z,9.50
2022-10-23T00:58:17.457Z,9.50
2022-10-23T01:00:47.460Z,9.49
2022-10-23T01:03:19.151Z,9.33
2022-10-23T01:05:51.555Z,9.26
2022-10-23T01:08:29.683Z,9.15
2022-10-23T01:11:05.889Z,9.11
2022-10-23T01:13:41.064Z,9.04
2022-10-23T01:16:15.328Z,9.03
2022-10-23T01:18:50.501Z,9.05
2022-10-23T01:21:26.728Z,9.03
2022-10-23T01:24:20.468Z,9.01
2022-10-23T01:27:02.561Z,9.05
2022-10-23T01:29:40.656Z,8.89
2022-10-23T01:32:11.756Z,8.83
2022-10-23T01:34:48.161Z,8.87
2022-10-23T01:37:26.289Z,8.84
2022-10-23T01:39:59.570Z,8.71
2022-10-23T01:42:34.629Z,8.69
2022-10-23T01:45:10.541Z,8.68
2022-10-23T01:47:46.129Z,8.66
2022-10-23T01:50:18.748Z,8.63
2022-10-23T01:52:49.119Z,8.65
2022-10-23T01:55:18.693Z,8.65
2022-10-23T01:57:48.370Z,8.66
2022-10-23T02:00:20.512Z,8.69
2022-10-23T02:02:57.156Z,8.70
2022-10-23T02:05:32.721Z,8.69
2022-10-23T02:08:02.869Z,8.74
2022-10-23T02:10:35.816Z,8.73
2022-10-23T02:13:09.075Z,8.74
2022-10-23T02:15:42.365Z,8.65
2022-10-23T02:18:21.866Z,8.57
2022-10-23T02:20:56.991Z,8.59
2022-10-23T02:23:33.433Z,8.61
2022-10-23T02:26:07.488Z,8.58
2022-10-23T02:28:43.051Z,8.58
2022-10-23T02:31:17.169Z,8.58
2022-10-23T02:33:47.058Z,8.61
2022-10-23T02:36:15.417Z,8.63
2022-10-23T02:38:45.479Z,8.63
2022-10-23T02:41:34.667Z,8.56
2022-10-23T02:44:18.042Z,8.47
2022-10-23T02:46:54.283Z,8.37
2022-10-23T02:49:27.625Z,8.33
2022-10-23T02:52:05.388Z,8.31
2022-10-23T02:54:43.878Z,8.32
2022-10-23T02:57:22.568Z,8.35
2022-10-23T03:00:01.853Z,8.24
2022-10-23T03:02:37.577Z,8.19
2022-10-23T03:05:10.270Z,8.15
2022-10-23T03:07:40.965Z,8.17
2022-10-23T03:10:11.891Z,8.19
2022-10-23T03:12:40.569Z,8.21
2022-10-23T03:15:10.326Z,8.21
2022-10-23T03:17:39.576Z,8.23
2022-10-23T03:20:08.550Z,8.23
2022-10-23T03:22:37.090Z,8.24
2022-10-23T03:25:05.682Z,8.26
2022-10-23T03:27:34.750Z,8.25
2022-10-23T03:30:07.475Z,8.27
2022-10-23T03:32:39.223Z,8.25
2022-10-23T03:35:07.752Z,8.25
2022-10-23T03:37:35.628Z,8.27
2022-10-23T03:40:03.608Z,8.24
2022-10-23T03:42:35.072Z,8.22
2022-10-23T03:45:02.923Z,8.23
2022-10-23T03:47:32.253Z,8.19
2022-10-23T03:50:03.264Z,8.15
2022-10-23T03:52:34.433Z,8.15
2022-10-23T03:55:02.227Z,8.19
2022-10-23T03:57:29.992Z,8.18
2022-10-23T03:59:57.869Z,8.17
2022-10-23T04:02:29.941Z,8.22
2022-10-23T04:04:57.933Z,8.24
2022-10-23T04:07:27.303Z,8.24
2022-10-23T04:09:55.166Z,8.21
2022-10-23T04:12:22.904Z,8.18
2022-10-23T04:14:52.332Z,8.14
2022-10-23T04:17:20.058Z,8.07
2022-10-23T04:19:50.356Z,8.03
2022-10-23T04:22:18.119Z,8.02
2022-10-23T04:24:48.031Z,8.01
2022-10-23T04:27:19.235Z,8.02
2022-10-23T04:29:46.971Z,8.01
2022-10-23T04:32:14.757Z,8.00
2022-10-23T04:34:44.966Z,8.00
2022-10-23T04:37:12.673Z,7.93
2022-10-23T04:39:40.918Z,7.99
2022-10-23T04:42:10.109Z,7.99
2022-10-23T04:44:37.858Z,7.99
2022-10-23T04:47:05.717Z,7.93
2022-10-23T04:49:37.371Z,7.96
2022-10-23T04:52:13.588Z,7.98
2022-10-23T04:55:10.881Z,8.02
2022-10-23T04:57:47.293Z,8.03
2022-10-23T05:00:17.109Z,8.04
2022-10-23T05:02:50.227Z,8.04
2022-10-23T05:05:19.113Z,8.02
2022-10-23T05:08:01.203Z,8.01
2022-10-23T05:10:37.229Z,8.06
2022-10-23T05:13:11.696Z,8.01
2022-10-23T05:15:40.887Z,7.99
2022-10-23T05:18:13.032Z,7.97
2022-10-23T05:20:41.256Z,7.95
2022-10-23T05:23:15.163Z,7.91
2022-10-23T05:25:52.308Z,7.87
2022-10-23T05:28:21.488Z,7.90
2022-10-23T05:30:49.697Z,7.92
2022-10-23T05:33:18.797Z,7.92
2022-10-23T05:35:49.117Z,7.87
2022-10-23T05:38:17.929Z,7.86
2022-10-23T05:40:45.955Z,7.86
2022-10-23T05:43:21.192Z,7.86
2022-10-23T05:45:58.918Z,7.87
2022-10-23T05:48:35.723Z,7.85
2022-10-23T05:51:28.213Z,7.83
2022-10-23T05:54:16.334Z,7.78
2022-10-23T05:56:54.251Z,7.81
2022-10-23T05:59:25.677Z,7.82
2022-10-23T06:02:00.454Z,7.77
2022-10-23T06:04:38.443Z,7.67
2022-10-23T06:07:42.174Z,7.59
2022-10-23T06:10:11.695Z,7.57
2022-10-23T06:12:43.824Z,7.57
2022-10-23T06:15:17.396Z,7.58
2022-10-23T06:18:01.774Z,7.62
2022-10-23T06:20:31.147Z,7.65
2022-10-23T06:23:09.038Z,7.72
2022-10-23T06:25:56.513Z,7.78
2022-10-23T06:28:32.726Z,7.76
2022-10-23T06:31:05.527Z,7.68
2022-10-23T06:33:33.329Z,7.67
2022-10-23T06:36:06.317Z,7.74
2022-10-23T06:38:36.813Z,7.82
2022-10-23T06:41:06.000Z,7.89
2022-10-23T06:43:37.927Z,7.96
2022-10-23T06:46:30.208Z,8.04
2022-10-23T06:49:00.763Z,8.09
2022-10-23T06:51:32.702Z,8.16
2022-10-23T06:54:00.505Z,8.25
2022-10-23T06:56:54.453Z,8.38
2022-10-23T06:59:30.424Z,8.49
2022-10-23T07:01:59.791Z,8.60
2022-10-23T07:04:28.249Z,8.71
2022-10-23T07:06:57.145Z,8.80
2022-10-23T07:09:30.641Z,8.97
2022-10-23T07:11:58.461Z,9.11
2022-10-23T07:14:35.134Z,9.28
2022-10-23T07:17:05.630Z,9.41
2022-10-23T07:19:34.172Z,9.52
2022-10-23T07:22:10.754Z,9.65
2022-10-23T07:24:44.014Z,9.79
2022-10-23T07:27:19.956Z,9.92
2022-10-23T07:29:55.045Z,10.06
2022-10-23T07:32:25.751Z,10.18
2022-10-23T07:35:23.477Z,10.33
2022-10-23T07:38:00.639Z,10.44
2022-10-23T07:40:32.170Z,10.52
2022-10-23T07:43:00.314Z,10.63
2022-10-23T07:45:28.023Z,10.72
2022-10-23T07:47:57.395Z,10.84
2022-10-23T07:50:29.439Z,10.99
2022-10-23T07:52:58.548Z,11.07
2022-10-23T07:55:35.239Z,11.15
2022-10-23T07:58:10.744Z,11.21
2022-10-23T08:00:45.283Z,11.28
2022-10-23T08:03:25.990Z,11.35
2022-10-23T08:05:54.604Z,11.39
2022-10-23T08:08:22.738Z,11.47
2022-10-23T08:10:53.277Z,11.57
2022-10-23T08:13:27.438Z,11.66
2022-10-23T08:16:03.209Z,11.74
2022-10-23T08:18:55.547Z,11.84
2022-10-23T08:21:24.236Z,11.94
2022-10-23T08:23:55.491Z,12.05
2022-10-23T08:26:24.549Z,12.13
2022-10-23T08:28:52.409Z,12.18
2022-10-23T08:31:21.845Z,12.24
2022-10-23T08:34:29.586Z,12.32
2022-10-23T08:36:58.639Z,12.34
2022-10-23T08:39:26.587Z,12.40
2022-10-23T08:42:22.003Z,12.50
2022-10-23T08:44:59.015Z,12.60
2022-10-23T08:47:32.192Z,12.68
2022-10-23T08:50:35.922Z,12.79
2022-10-23T08:53:08.045Z,12.85
2022-10-23T08:55:40.960Z,12.96
2022-10-23T08:58:15.584Z,13.03
2022-10-23T09:00:44.615Z,13.19
2022-10-23T09:03:13.888Z,13.34
2022-10-23T09:05:55.342Z,13.43
2022-10-23T09:08:34.721Z,13.51
2022-10-23T09:11:07.541Z,13.65
2022-10-23T09:13:58.199Z,13.81
2022-10-23T09:16:38.069Z,13.88
2022-10-23T09:19:15.675Z,13.93
2022-10-23T09:21:46.853Z,13.98
2022-10-23T09:24:17.979Z,14.08
2022-10-23T09:26:49.626Z,14.18
2022-10-23T09:29:24.909Z,14.32
2022-10-23T09:31:54.251Z,14.43
2022-10-23T09:34:24.750Z,14.55
2022-10-23T09:39:27.871Z,14.84
2022-10-23T09:41:57.032Z,14.99
2022-10-23T09:44:27.981Z,15.07
2022-10-23T09:47:00.581Z,15.11
2022-10-23T09:49:30.381Z,15.25
2022-10-23T09:52:05.509Z,15.40
2022-10-23T09:54:38.923Z,15.64
2022-10-23T09:57:20.761Z,15.77
2022-10-23T09:59:53.183Z,15.92
2022-10-23T10:02:28.728Z,16.07
2022-10-23T10:05:25.443Z,16.26
2022-10-23T10:08:03.011Z,16.46
2022-10-23T10:10:37.177Z,16.65
2022-10-23T10:13:18.711Z,16.89
2022-10-23T10:15:51.715Z,17.16
2022-10-23T10:18:28.329Z,17.49
2022-10-23T10:21:07.995Z,17.77
2022-10-23T10:23:48.485Z,18.00
2022-10-23T10:29:12.550Z,18.32
2022-10-23T10:31:56.269Z,18.55
2022-10-23T10:34:31.727Z,18.67
2022-10-23T10:37:06.994Z,18.62
2022-10-23T10:39:48.822Z,18.81
2022-10-23T10:42:29.856Z,18.99
2022-10-23T10:45:18.456Z,19.21
2022-10-23T10:47:57.410Z,19.39
2022-10-23T10:50:38.577Z,19.56
2022-10-23T10:53:24.981Z,19.76
2022-10-23T10:55:57.813Z,19.79
2022-10-23T10:58:35.494Z,19.76
2022-10-23T11:01:09.645Z,19.74
2022-10-23T11:03:42.414Z,19.71
2022-10-23T11:06:17.257Z,19.58
2022-10-23T11:08:57.237Z,19.51
2022-10-23T11:11:33.231Z,19.53
2022-10-23T11:14:01.221Z,19.55
2022-10-23T11:16:32.311Z,19.57
2022-10-23T11:19:11.316Z,19.65
2022-10-23T11:21:45.836Z,19.80
2022-10-23T11:24:43.159Z,20.09
2022-10-23T11:27:35.668Z,20.05
2022-10-23T11:30:14.335Z,19.95
2022-10-23T11:33:02.090Z,19.75
2022-10-23T11:35:49.916Z,19.60
2022-10-23T11:38:21.213Z,19.54
2022-10-23T11:40:53.580Z,19.55
2022-10-23T11:43:30.881Z,19.74
2022-10-23T11:45:59.264Z,19.94
2022-10-23T11:48:37.874Z,20.29
2022-10-23T11:51:05.996Z,20.61
2022-10-23T11:53:42.764Z,20.81
2022-10-23T11:56:31.061Z,20.79
2022-10-23T11:59:11.613Z,20.73
2022-10-23T12:01:44.182Z,20.62
2022-10-23T12:04:22.328Z,20.48
2022-10-23T12:06:53.589Z,20.37
2022-10-23T12:09:29.014Z,20.17
2022-10-23T12:12:27.220Z,20.06
2022-10-23T12:15:09.395Z,20.00
2022-10-23T12:17:40.141Z,19.99
2022-10-23T12:20:24.069Z,19.99
2022-10-23T12:23:03.861Z,19.96
2022-10-23T12:25:43.168Z,19.98
2022-10-23T12:28:23.983Z,19.92
2022-10-23T12:31:03.452Z,19.88
2022-10-23T12:33:39.328Z,19.95
2022-10-23T12:36:26.180Z,20.06
2022-10-23T12:38:54.762Z,20.31
2022-10-23T12:41:26.395Z,20.60
2022-10-23T12:43:57.233Z,20.88
2022-10-23T12:46:48.223Z,20.93
2022-10-23T12:49:18.717Z,20.88
2022-10-23T12:51:48.500Z,20.81
2022-10-23T12:54:18.137Z,20.93
2022-10-23T12:56:46.747Z,20.99
2022-10-23T12:59:18.570Z,20.92
2022-10-23T13:01:52.383Z,20.82
2022-10-23T13:04:28.906Z,20.84
2022-10-23T13:06:58.504Z,20.77
2022-10-23T13:09:30.796Z,20.80
2022-10-23T13:12:22.363Z,20.93
2022-10-23T13:14:59.336Z,20.97
2022-10-23T13:17:40.721Z,21.03
2022-10-23T13:20:21.960Z,21.01
2022-10-23T13:22:56.405Z,20.93
2022-10-23T13:25:29.655Z,20.91
2022-10-23T13:28:14.681Z,20.83
2022-10-23T13:30:46.156Z,20.80
2022-10-23T13:33:24.126Z,20.71
2022-10-23T13:36:03.088Z,20.66
2022-10-23T13:38:32.612Z,20.54
2022-10-23T13:41:01.470Z,20.40
2022-10-23T13:43:30.728Z,20.36
2022-10-23T13:45:58.798Z,20.30
2022-10-23T13:48:28.473Z,20.31
2022-10-23T13:51:02.481Z,20.27
2022-10-23T13:53:30.471Z,20.31
2022-10-23T13:55:58.831Z,20.32
2022-10-23T13:58:26.699Z,20.29
2022-10-23T14:00:55.116Z,20.27
2022-10-23T14:03:24.299Z,20.22
2022-10-23T14:05:53.491Z,20.22
2022-10-23T14:08:21.245Z,20.19
2022-10-23T14:10:49.164Z,20.04
2022-10-23T14:13:17.578Z,19.94
2022-10-23T14:15:45.328Z,19.84
2022-10-23T14:18:13.074Z,19.76
2022-10-23T14:20:40.844Z,19.65
2022-10-23T14:23:09.956Z,19.57
2022-10-23T14:25:37.692Z,19.50
2022-10-23T14:28:05.699Z,19.43
2022-10-23T14:30:33.734Z,19.40
2022-10-23T14:33:01.464Z,19.30
2022-10-23T14:35:29.229Z,19.25
2022-10-23T14:37:57.858Z,19.17
2022-10-23T14:40:27.069Z,19.06
2022-10-23T14:42:54.840Z,18.98
2022-10-23T14:45:31.866Z,18.91
2022-10-23T14:48:00.941Z,18.84
2022-10-23T14:50:28.726Z,18.78
2022-10-23T14:52:56.526Z,18.70
2022-10-23T14:55:24.268Z,18.60
2022-10-23T14:58:09.057Z,18.52
2022-10-23T15:00:39.302Z,18.48
2022-10-23T15:03:13.306Z,18.44
2022-10-23T15:06:02.427Z,18.36
2022-10-23T15:08:40.052Z,18.30
2022-10-23T15:11:15.788Z,18.24
2022-10-23T15:13:55.290Z,18.24
2022-10-23T15:16:43.721Z,18.16
2022-10-23T15:19:24.513Z,18.07
2022-10-23T15:21:52.609Z,18.03
2022-10-23T15:24:26.680Z,17.98
2022-10-23T15:27:00.521Z,17.91
2022-10-23T15:29:29.785Z,17.85
2022-10-23T15:31:59.798Z,17.80
2022-10-23T15:34:37.597Z,17.74
2022-10-23T15:37:05.653Z,17.69
2022-10-23T15:39:38.408Z,17.62
2022-10-23T15:42:07.446Z,17.55
2022-10-23T15:44:42.550Z,17.46
2022-10-23T15:47:10.388Z,17.36
2022-10-23T15:49:39.743Z,17.33
2022-10-23T15:54:36.584Z,17.19
2022-10-23T15:57:08.734Z,17.11
2022-10-23T15:59:37.926Z,17.06
2022-10-23T16:02:06.410Z,16.87
2022-10-23T16:04:35.293Z,16.85
2022-10-23T16:07:03.057Z,16.73
2022-10-23T16:09:30.800Z,16.65
2022-10-23T16:12:05.176Z,16.57
2022-10-23T16:17:57.052Z,16.51
2022-10-23T16:20:24.777Z,16.46
2022-10-23T16:22:52.736Z,16.42
2022-10-23T16:25:20.733Z,16.36
2022-10-23T16:27:48.790Z,16.30
2022-10-23T16:30:21.565Z,16.26
2022-10-23T16:32:50.779Z,16.20
2022-10-23T16:35:18.740Z,16.13
2022-10-23T16:37:58.818Z,16.05
2022-10-23T16:40:26.846Z,16.00
2022-10-23T16:43:13.314Z,15.96
2022-10-23T16:45:46.168Z,15.94
2022-10-23T16:48:14.195Z,15.89
2022-10-23T16:50:42.465Z,15.85
2022-10-23T16:53:11.624Z,15.80
2022-10-23T16:55:41.622Z,15.81
2022-10-23T16:58:09.421Z,15.81
2022-10-23T17:00:37.229Z,15.72
2022-10-23T17:03:06.606Z,15.74
2022-10-23T17:05:35.321Z,15.64
2022-10-23T17:08:03.438Z,15.58
2022-10-23T17:10:31.310Z,15.54
2022-10-23T17:13:00.672Z,15.53
2022-10-23T17:15:31.426Z,15.48
2022-10-23T17:17:59.388Z,15.45
2022-10-23T17:20:29.574Z,15.41
2022-10-23T17:22:57.469Z,15.38
2022-10-23T17:25:27.157Z,15.39
2022-10-23T17:27:55.092Z,15.40
2022-10-23T17:30:22.962Z,15.41
2022-10-23T17:32:50.783Z,15.41
2022-10-23T17:35:18.608Z,15.39
2022-10-23T17:37:50.075Z,15.39
2022-10-23T17:40:21.557Z,15.35
2022-10-23T17:42:52.806Z,15.29
2022-10-23T17:45:21.654Z,15.26
2022-10-23T17:47:49.410Z,15.21
2022-10-23T17:50:17.342Z,15.18
2022-10-23T17:52:45.466Z,15.18
2022-10-23T17:55:14.925Z,15.19
2022-10-23T17:57:42.850Z,15.18
2022-10-23T18:00:11.945Z,15.14
2022-10-23T18:02:42.501Z,15.11
2022-10-23T18:05:11.238Z,15.10
2022-10-23T18:07:39.031Z,15.08
2022-10-23T18:10:07.520Z,15.02
2022-10-23T18:12:38.009Z,14.99
2022-10-23T18:15:06.976Z,14.97
2022-10-23T18:17:34.971Z,14.93
2022-10-23T18:20:03.062Z,14.92
2022-10-23T18:22:33.116Z,14.90
2022-10-23T18:25:01.135Z,14.87
2022-10-23T18:27:28.993Z,14.84
2022-10-23T18:29:58.158Z,14.82
2022-10-23T18:32:26.010Z,14.78
2022-10-23T18:34:53.852Z,14.76
2022-10-23T18:37:21.664Z,14.75
2022-10-23T18:39:49.456Z,14.72
2022-10-23T18:42:17.221Z,14.69
2022-10-23T18:44:49.793Z,14.70
2022-10-23T18:47:19.073Z,14.70
2022-10-23T18:49:46.822Z,14.62
2022-10-23T18:52:17.825Z,14.59
2022-10-23T18:54:45.649Z,14.53
2022-10-23T18:57:13.483Z,14.55
2022-10-23T18:59:41.406Z,14.55
2022-10-23T19:02:10.729Z,14.52
2022-10-23T19:04:40.014Z,14.53
2022-10-23T19:07:07.829Z,14.54
2022-10-23T19:09:36.257Z,14.54
2022-10-23T19:12:05.848Z,14.51
2022-10-23T19:14:33.705Z,14.54
2022-10-23T19:17:03.923Z,14.56
2022-10-23T19:19:34.932Z,14.57
2022-10-23T19:22:05.460Z,14.58
2022-10-23T19:24:37.822Z,14.61
2022-10-23T19:27:06.391Z,14.59
2022-10-23T19:29:34.658Z,14.61
2022-10-23T19:32:03.107Z,14.62
2022-10-23T19:34:30.907Z,14.63
2022-10-23T19:36:58.761Z,14.62
2022-10-23T19:39:28.150Z,14.62
2022-10-23T19:41:56.033Z,14.59
2022-10-23T19:44:23.893Z,14.58
2022-10-23T19:46:51.785Z,14.55
2022-10-23T19:49:19.788Z,14.54
2022-10-23T19:51:51.329Z,14.56
2022-10-23T19:54:20.411Z,14.55
2022-10-23T19:56:50.009Z,14.55
2022-10-23T19:59:17.928Z,14.53
2022-10-23T20:01:48.211Z,14.55
2022-10-23T20:04:17.167Z,14.57
2022-10-23T20:06:44.983Z,14.57
2022-10-23T20:09:12.824Z,14.58
2022-10-23T20:11:41.390Z,14.56
2022-10-23T20:14:11.306Z,14.57
2022-10-23T20:16:40.349Z,14.57
2022-10-23T20:19:10.298Z,14.57
2022-10-23T20:21:38.881Z,14.56
2022-10-23T20:24:07.515Z,14.58
2022-10-23T20:26:35.362Z,14.60
2022-10-23T20:29:03.172Z,14.64
2022-10-23T20:31:36.276Z,14.67
2022-10-23T20:34:04.544Z,14.68
2022-10-23T20:36:34.766Z,14.70
2022-10-23T20:39:06.302Z,14.71
2022-10-23T20:41:37.086Z,14.74
2022-10-23T20:44:06.844Z,14.74
2022-10-23T20:46:37.199Z,14.79
2022-10-23T20:49:05.296Z,14.78
2022-10-23T20:51:33.075Z,14.78
2022-10-23T20:54:00.818Z,14.77
2022-10-23T20:56:31.146Z,14.76
2022-10-23T20:58:59.543Z,14.78
2022-10-23T21:01:28.099Z,14.77
2022-10-23T21:03:59.177Z,14.77
2022-10-23T21:06:33.972Z,14.77
2022-10-23T21:11:41.517Z,14.76
2022-10-23T21:14:09.254Z,14.75
2022-10-23T21:16:40.748Z,14.75
2022-10-23T21:19:12.179Z,14.75
2022-10-23T21:21:40.075Z,14.74
2022-10-23T21:24:10.397Z,14.75
2022-10-23T21:26:38.251Z,14.75
2022-10-23T21:29:18.036Z,14.73
2022-10-23T21:31:46.695Z,14.69
2022-10-23T21:34:15.830Z,14.70
2022-10-23T21:37:07.558Z,14.67
2022-10-23T21:39:34.251Z,14.66
2022-10-23T21:42:02.055Z,14.65
2022-10-23T21:44:29.808Z,14.66
2022-10-23T21:46:57.653Z,14.65
2022-10-23T21:49:26.815Z,14.67
2022-10-23T21:51:55.190Z,14.71
2022-10-23T21:54:23.837Z,14.89
2022-10-23T21:56:54.799Z,14.99
2022-10-23T21:59:25.887Z,15.06
2022-10-23T22:01:55.972Z,15.13
2022-10-23T22:04:23.876Z,15.24
2022-10-23T22:06:53.139Z,15.28
2022-10-23T22:09:22.588Z,15.37
2022-10-23T22:11:51.292Z,15.42
2022-10-23T22:14:19.403Z,15.52
2022-10-23T22:16:48.849Z,15.57
2022-10-23T22:19:18.462Z,15.66
2022-10-23T22:21:46.726Z,15.74
2022-10-23T22:24:17.438Z,15.85
2022-10-23T22:26:47.476Z,15.88
2022-10-23T22:29:17.387Z,15.85
2022-10-23T22:31:48.911Z,15.89
2022-10-23T22:34:34.181Z,15.87
2022-10-23T22:37:10.998Z,15.82
2022-10-23T22:39:41.117Z,15.77
2022-10-23T22:42:09.046Z,15.77
2022-10-23T22:44:36.995Z,15.80
2022-10-23T22:47:04.995Z,15.91
2022-10-23T22:49:32.832Z,15.99
2022-10-23T22:52:00.572Z,16.04
2022-10-23T22:54:30.452Z,16.19
2022-10-23T22:56:59.832Z,16.30
2022-10-23T22:59:27.656Z,16.29
2022-10-23T23:01:56.002Z,16.28
2022-10-23T23:04:39.601Z,16.27
2022-10-23T23:07:08.964Z,16.25
2022-10-23T23:09:38.621Z,16.18
2022-10-23T23:12:09.338Z,16.06
2022-10-23T23:14:37.642Z,15.93
2022-10-23T23:17:05.880Z,15.78
2022-10-23T23:19:34.005Z,15.69
2022-10-23T23:22:02.401Z,15.57
2022-10-23T23:24:30.247Z,15.48
2022-10-23T23:26:58.066Z,15.43
2022-10-23T23:29:28.354Z,15.39
2022-10-23T23:31:56.166Z,15.35
2022-10-23T23:34:23.923Z,15.31
2022-10-23T23:36:51.721Z,15.25
2022-10-23T23:39:19.545Z,15.23
2022-10-23T23:41:47.331Z,15.16
2022-10-23T23:44:15.108Z,15.09
2022-10-23T23:46:44.313Z,15.05
2022-10-23T23:49:12.106Z,15.02
2022-10-23T23:51:39.934Z,14.97
2022-10-23T23:54:07.734Z,14.93
2022-10-23T23:56:35.509Z,14.91
2022-10-23T23:59:03.853Z,14.98
